Time;durP1;ratioP1;P1;durP2;ratioP2;P2;SDS_P1;SDS_P2;PMS_P1;PMS_P2;Temp;Humidity;BMP_temperature;BMP_pressure;BME280_temperature;BME280_humidity;BME280_pressure;Samples;Min_cycle;Max_cycle;Signal;HPM_P1;HPM_P2
2022/01/07 00:02:25;;;;;;;10.82;9.80;;;;;;;6.11;73.36;101713.47;5065136;28;20105;-82
2022/01/07 00:04:52;;;;;;;9.35;8.45;;;;;;;6.08;73.56;101712.78;5065667;28;20526;-79
2022/01/07 00:07:19;;;;;;;12.05;9.23;;;;;;;6.10;73.27;101711.78;5067297;28;20047;-83
2022/01/07 00:09:45;;;;;;;10.18;9.18;;;;;;;5.91;73.54;101689.91;5065317;28;20167;-82
2022/01/07 00:12:12;;;;;;;9.82;8.93;;;;;;;5.98;73.52;101697.44;5065173;28;20562;-81
2022/01/07 00:14:39;;;;;;;9.35;8.45;;;;;;;6.04;72.85;101717.34;5065415;28;20139;-81
2022/01/07 00:17:08;;;;;;;9.85;8.85;;;;;;;5.88;73.40;101695.34;5065535;28;20049;-80
2022/01/07 00:19:34;;;;;;;10.10;8.65;;;;;;;6.04;73.26;101704.16;5065337;28;20143;-81
2022/01/07 00:22:02;;;;;;;9.68;8.68;;;;;;;5.99;73.17;101714.09;5065447;28;20385;-83
2022/01/07 00:24:28;;;;;;;11.75;8.23;;;;;;;5.90;73.47;101709.31;5065522;28;20052;-81
2022/01/07 00:26:55;;;;;;;9.25;8.23;;;;;;;5.95;72.89;101712.59;5065520;28;20055;-82
2022/01/07 00:29:26;;;;;;;14.48;9.85;;;;;;;6.01;73.19;101722.78;5065807;28;20053;-83
2022/01/07 00:31:53;;;;;;;9.35;8.45;;;;;;;5.89;72.72;101697.03;5067110;28;20079;-82
2022/01/07 00:34:19;;;;;;;9.95;8.73;;;;;;;5.94;72.58;101716.97;5066783;28;20143;-82
2022/01/07 00:36:46;;;;;;;10.27;9.27;;;;;;;5.79;72.94;101712.47;5066630;28;20091;-84
2022/01/07 00:39:12;;;;;;;10.10;8.50;;;;;;;5.74;72.89;101704.78;5070934;28;20469;-82
2022/01/07 00:41:39;;;;;;;9.93;8.93;;;;;;;5.85;73.05;101727.09;5076308;28;20047;-84
2022/01/07 00:44:06;;;;;;;13.48;8.90;;;;;;;5.81;73.24;101734.34;5087238;28;20107;-83
2022/01/07 00:46:33;;;;;;;10.25;9.35;;;;;;;5.76;73.84;101734.56;5079142;28;20070;-83
2022/01/07 00:48:59;;;;;;;10.38;8.88;;;;;;;5.71;73.68;101726.03;5070147;28;20052;-83
2022/01/07 00:51:26;;;;;;;9.43;8.45;;;;;;;5.29;73.25;101661.44;5069195;28;20049;-81
2022/01/07 00:53:52;;;;;;;8.77;7.95;;;;;;;5.50;73.14;101691.09;5068203;28;20296;-82
2022/01/07 00:56:19;;;;;;;10.00;9.00;;;;;;;5.72;73.24;101725.09;5064716;28;20484;-82
2022/01/07 00:58:46;;;;;;;10.10;9.07;;;;;;;5.67;73.24;101724.47;5064906;28;20052;-82
2022/01/07 01:01:12;;;;;;;9.52;8.63;;;;;;;5.57;72.76;101704.81;5064644;28;20082;-81
2022/01/07 01:03:40;;;;;;;9.13;8.23;;;;;;;5.78;73.02;101731.88;5065322;28;20087;-81
2022/01/07 01:06:06;;;;;;;9.20;8.40;;;;;;;4.56;72.48;101554.50;5066236;28;20056;-80
2022/01/07 01:08:33;;;;;;;10.85;8.77;;;;;;;5.70;72.47;101745.41;5064866;28;20139;-81
2022/01/07 01:11:04;;;;;;;9.95;8.73;;;;;;;5.19;72.95;101670.69;5065082;28;20076;-81
2022/01/07 01:13:31;;;;;;;8.93;8.02;;;;;;;5.43;72.97;101710.75;5064905;28;20157;-82
2022/01/07 01:15:58;;;;;;;9.50;8.57;;;;;;;5.57;72.89;101749.59;5066105;28;20055;-82
2022/01/07 01:18:25;;;;;;;13.60;8.40;;;;;;;5.51;73.27;101731.44;5064760;28;20139;-84
2022/01/07 01:20:52;;;;;;;9.30;8.30;;;;;;;4.84;72.79;101636.44;5064834;28;20584;-81
2022/01/07 01:23:19;;;;;;;9.68;8.80;;;;;;;5.57;72.95;101760.13;5067740;28;20054;-81
2022/01/07 01:25:45;;;;;;;9.45;8.45;;;;;;;5.46;73.23;101751.88;5069334;28;20423;-81
2022/01/07 01:28:12;;;;;;;9.50;8.55;;;;;;;5.19;72.95;101702.28;5068284;28;20214;-83
2022/01/07 01:30:38;;;;;;;9.57;8.70;;;;;;;5.47;72.78;101765.00;5068240;28;20050;-81
2022/01/07 01:33:05;;;;;;;10.05;8.77;;;;;;;5.47;72.94;101764.16;5068467;28;20047;-81
2022/01/07 01:35:37;;;;;;;8.07;7.28;;;;;;;5.16;72.95;101728.75;5069292;28;20411;-82
2022/01/07 01:38:04;;;;;;;9.05;8.25;;;;;;;5.48;72.81;101768.47;5068573;28;20487;-81
2022/01/07 01:40:30;;;;;;;10.13;8.70;;;;;;;5.42;73.03;101763.53;5068087;28;20075;-83
2022/01/07 01:42:57;;;;;;;10.02;8.90;;;;;;;5.30;72.69;101752.66;5068056;28;20139;-82
2022/01/07 01:45:24;;;;;;;10.50;8.85;;;;;;;5.26;73.22;101763.41;5067983;28;20543;-81
2022/01/07 01:47:53;;;;;;;10.20;9.20;;;;;;;5.26;73.65;101769.50;5068128;28;20072;-80
2022/01/07 01:50:20;;;;;;;9.18;8.27;;;;;;;5.22;73.10;101765.34;5068109;28;20511;-81
2022/01/07 01:52:56;;;;;;;9.15;8.23;;;;;;;5.05;73.77;101736.31;5067857;28;20135;-83
2022/01/07 01:55:29;;;;;;;10.32;9.43;;;;;;;5.22;73.56;101762.69;5068081;28;20135;-82
2022/01/07 01:57:57;;;;;;;10.30;8.25;;;;;;;4.93;73.69;101728.09;5068015;28;20052;-81
2022/01/07 02:00:25;;;;;;;10.70;8.90;;;;;;;5.06;73.50;101748.56;5069259;28;20083;-82
2022/01/07 02:02:52;;;;;;;9.68;8.73;;;;;;;5.15;73.57;101761.28;5066218;28;20056;-82
2022/01/07 02:05:19;;;;;;;10.00;9.05;;;;;;;5.12;73.19;101732.47;5068327;28;20190;-81
2022/01/07 02:07:46;;;;;;;10.73;9.63;;;;;;;5.10;73.65;101756.25;5067677;28;20075;-80
2022/01/07 02:10:15;;;;;;;9.80;8.88;;;;;;;5.04;73.90;101740.72;5067701;28;20059;-82
2022/01/07 02:12:43;;;;;;;11.23;9.10;;;;;;;5.11;73.31;101751.81;5067376;28;20080;-80
2022/01/07 02:15:13;;;;;;;9.35;8.55;;;;;;;4.44;73.37;101646.22;5068597;28;20147;-80
2022/01/07 02:17:42;;;;;;;11.23;10.23;;;;;;;5.02;73.65;101747.00;5067128;28;20135;-82
2022/01/07 02:20:09;;;;;;;10.02;9.15;;;;;;;4.28;73.37;101624.19;5067157;28;20044;-83
2022/01/07 02:22:36;;;;;;;10.20;9.20;;;;;;;5.08;73.09;101749.34;5067220;28;20084;-81
2022/01/07 02:25:04;;;;;;;10.32;9.32;;;;;;;5.06;73.07;101748.56;5067226;28;20052;-82
2022/01/07 02:27:34;;;;;;;9.18;8.38;;;;;;;4.87;73.03;101711.72;5067056;28;20052;-82
2022/01/07 02:30:01;;;;;;;12.95;9.00;;;;;;;5.06;72.67;101748.56;5068465;28;20063;-81
2022/01/07 02:32:27;;;;;;;9.88;8.48;;;;;;;4.96;73.12;101739.41;5067094;28;20080;-82
2022/01/07 02:34:56;;;;;;;9.43;8.27;;;;;;;5.06;72.71;101748.56;5071738;28;20051;-83
2022/01/07 02:37:23;;;;;;;10.60;8.90;;;;;;;5.07;72.63;101750.25;5081920;28;20139;-82
2022/01/07 02:39:49;;;;;;;10.02;9.00;;;;;;;5.01;72.78;101745.28;5074665;28;20072;-82
2022/01/07 02:42:16;;;;;;;10.55;8.95;;;;;;;4.88;72.66;101734.50;5066478;28;20041;-82
2022/01/07 02:44:43;;;;;;;10.00;9.00;;;;;;;4.03;72.80;101600.81;5065961;28;20521;-82
2022/01/07 02:47:12;;;;;;;10.07;9.05;;;;;;;5.03;72.58;101753.97;5067974;28;20449;-81
2022/01/07 02:49:38;;;;;;;9.98;8.45;;;;;;;4.90;73.03;101746.66;5068115;28;20052;-82
2022/01/07 02:52:05;;;;;;;10.13;9.18;;;;;;;5.03;72.74;101752.19;5066722;28;20056;-81
2022/01/07 02:54:34;;;;;;;9.88;8.85;;;;;;;4.49;72.32;101669.66;5065547;28;20395;-81
2022/01/07 02:57:01;;;;;;;9.63;8.63;;;;;;;4.48;72.20;101655.66;5064911;28;20123;-80
2022/01/07 02:59:27;;;;;;;9.18;8.32;;;;;;;4.89;72.53;101752.81;5064910;28;20059;-82
2022/01/07 03:01:54;;;;;;;9.70;8.70;;;;;;;4.22;72.69;101630.59;5066252;28;20044;-83
2022/01/07 03:04:23;;;;;;;9.63;8.68;;;;;;;4.64;72.66;101700.50;5066471;28;20333;-80
2022/01/07 03:06:53;;;;;;;9.82;8.60;;;;;;;4.96;72.14;101732.34;5067481;28;20139;-81
2022/01/07 03:09:19;;;;;;;10.82;9.20;;;;;;;4.50;72.58;101687.16;5067624;28;20055;-81
2022/01/07 03:11:46;;;;;;;9.40;8.43;;;;;;;4.83;73.48;101737.34;5066170;28;20549;-82
2022/01/07 03:14:12;;;;;;;10.32;9.32;;;;;;;3.96;73.62;101592.34;5066295;28;20479;-82
2022/01/07 03:16:40;;;;;;;10.25;9.20;;;;;;;4.66;73.45;101722.34;5066250;28;20052;-82
2022/01/07 03:19:06;;;;;;;11.02;9.25;;;;;;;4.86;72.22;101741.59;5067174;28;20132;-82
2022/01/07 03:21:33;;;;;;;9.73;8.73;;;;;;;4.88;72.71;101739.78;5066040;28;20131;-81
2022/01/07 03:24:00;;;;;;;9.23;8.32;;;;;;;4.87;72.58;101738.88;5065673;28;20045;-82
2022/01/07 03:26:26;;;;;;;9.23;8.10;;;;;;;4.70;72.40;101715.16;5065884;28;20306;-82
2022/01/07 03:28:53;;;;;;;9.40;8.32;;;;;;;4.92;72.21;101747.41;5066199;28;20056;-81
2022/01/07 03:31:19;;;;;;;9.18;8.27;;;;;;;4.92;71.63;101746.56;5065839;28;20051;-83
2022/01/07 03:33:46;;;;;;;9.38;8.48;;;;;;;4.94;71.48;101750.00;5065928;28;20052;-81
2022/01/07 03:36:15;;;;;;;9.30;8.50;;;;;;;4.95;71.66;101745.56;5063939;28;20044;-81
2022/01/07 03:38:42;;;;;;;9.63;8.73;;;;;;;4.76;71.89;101725.41;5065498;28;20067;-82
2022/01/07 03:41:08;;;;;;;9.82;8.93;;;;;;;4.43;71.66;101677.84;5064654;28;20456;-82
2022/01/07 03:43:38;;;;;;;9.27;7.97;;;;;;;4.92;72.05;101757.09;5065412;28;20078;-82
2022/01/07 03:46:04;;;;;;;9.20;8.30;;;;;;;4.58;71.63;101694.69;5065820;28;20483;-81
2022/01/07 03:48:31;;;;;;;9.80;8.80;;;;;;;4.96;71.54;101758.66;5065597;28;20495;-82
2022/01/07 03:50:58;;;;;;;8.88;7.97;;;;;;;4.74;71.41;101737.78;5064995;28;20140;-83
2022/01/07 03:53:27;;;;;;;9.63;8.73;;;;;;;4.93;71.25;101762.31;5065281;28;20044;-83
2022/01/07 03:55:54;;;;;;;10.45;8.35;;;;;;;4.79;71.48;101762.09;5065304;28;20053;-82
2022/01/07 03:58:21;;;;;;;9.05;8.25;;;;;;;4.71;71.45;101745.81;5064731;28;20449;-84
2022/01/07 04:00:49;;;;;;;9.50;8.50;;;;;;;4.83;71.30;101763.66;5065428;28;20048;-83
2022/01/07 04:03:17;;;;;;;9.98;8.98;;;;;;;4.84;71.30;101767.13;5065288;28;20060;-81
2022/01/07 04:05:44;;;;;;;9.52;8.20;;;;;;;4.79;71.25;101777.03;5067782;28;20136;-82
2022/01/07 04:08:11;;;;;;;8.77;7.88;;;;;;;3.23;71.17;101528.22;5076651;28;20063;-82
2022/01/07 04:10:39;;;;;;;10.53;9.43;;;;;;;4.76;71.23;101767.50;5087610;28;20067;-83
2022/01/07 04:13:06;;;;;;;10.23;8.35;;;;;;;4.74;71.16;101761.44;5088711;28;20120;-80
2022/01/07 04:15:33;;;;;;;10.00;8.93;;;;;;;4.42;70.64;101700.66;5080927;28;20064;-83
2022/01/07 04:17:59;;;;;;;10.40;8.32;;;;;;;4.45;70.82;101721.53;5067913;28;20135;-82
2022/01/07 04:20:29;;;;;;;9.40;8.37;;;;;;;4.66;71.43;101787.22;5064567;28;20060;-82
2022/01/07 04:22:57;;;;;;;9.97;8.93;;;;;;;4.58;71.56;101794.63;5064408;28;20203;-82
2022/01/07 04:25:24;;;;;;;9.50;8.50;;;;;;;4.60;71.70;101779.63;5066059;28;20560;-81
2022/01/07 04:27:59;;;;;;;11.53;8.30;;;;;;;4.11;71.50;101706.44;5064404;28;20044;-80
2022/01/07 04:30:29;;;;;;;9.67;8.77;;;;;;;4.28;71.49;101755.63;5064878;28;20438;-80
2022/01/07 04:33:01;;;;;;;9.87;8.90;;;;;;;4.01;71.35;101692.00;5065026;28;20041;-81
2022/01/07 04:35:30;;;;;;;10.57;8.67;;;;;;;3.07;71.08;101546.38;5063604;28;20045;-79
2022/01/07 04:37:57;;;;;;;10.20;9.20;;;;;;;4.47;71.51;101771.44;5063525;28;20407;-82
2022/01/07 04:40:24;;;;;;;10.17;8.23;;;;;;;3.93;71.31;101684.47;5063916;28;20047;-81
2022/01/07 04:42:50;;;;;;;9.10;8.18;;;;;;;4.28;71.57;101755.63;5064866;28;20080;-80
2022/01/07 04:45:17;;;;;;;9.60;8.67;;;;;;;4.14;71.52;101726.47;5064174;28;20274;-83
2022/01/07 04:47:44;;;;;;;9.27;8.20;;;;;;;3.88;71.84;101694.28;5065084;28;20062;-82
2022/01/07 04:50:15;;;;;;;9.70;8.70;;;;;;;4.23;71.38;101747.94;5064816;28;20095;-81
2022/01/07 04:52:46;;;;;;;9.80;8.60;;;;;;;4.41;71.66;101776.97;5065000;28;20114;-83
2022/01/07 04:55:14;;;;;;;9.27;8.30;;;;;;;4.04;71.78;101721.59;5063960;28;20063;-82
2022/01/07 04:57:43;;;;;;;9.87;8.97;;;;;;;4.21;71.16;101744.53;5066024;28;20105;-82
2022/01/07 05:00:10;;;;;;;12.43;9.93;;;;;;;4.34;71.36;101765.84;5067804;28;20090;-82
2022/01/07 05:02:37;;;;;;;10.13;9.13;;;;;;;4.42;70.97;101771.66;5050940;28;20559;-81
2022/01/07 05:05:05;;;;;;;10.20;9.20;;;;;;;4.40;70.60;101754.22;5069688;28;20238;-82
2022/01/07 05:07:34;;;;;;;10.67;9.67;;;;;;;4.04;70.35;101705.00;5069271;28;20503;-80
2022/01/07 05:10:00;;;;;;;9.80;8.83;;;;;;;4.27;70.81;101759.16;5067870;28;20084;-80
2022/01/07 05:12:27;;;;;;;10.67;9.47;;;;;;;4.07;70.87;101729.34;5068203;28;20325;-82
2022/01/07 05:14:53;;;;;;;10.63;9.57;;;;;;;4.36;70.70;101774.53;5068110;28;20499;-82
2022/01/07 05:17:22;;;;;;;10.50;9.50;;;;;;;4.38;70.69;101782.38;5061330;28;20052;-82
2022/01/07 05:19:52;;;;;;;9.63;8.73;;;;;;;4.38;70.38;101782.38;5047493;28;20491;-82
2022/01/07 05:22:18;;;;;;;10.07;9.07;;;;;;;4.33;70.74;101782.56;5065587;28;20661;-83
2022/01/07 05:24:45;;;;;;;10.77;9.53;;;;;;;3.98;70.52;101716.63;5068422;28;20056;-83
2022/01/07 05:27:11;;;;;;;10.80;8.60;;;;;;;4.17;70.85;101755.22;5067123;28;20048;-81
2022/01/07 05:29:38;;;;;;;12.33;9.00;;;;;;;3.98;70.95;101727.16;5067230;28;20705;-82
2022/01/07 05:32:06;;;;;;;10.60;9.60;;;;;;;4.22;70.73;101764.66;5067146;28;20487;-81
2022/01/07 05:34:33;;;;;;;10.83;9.60;;;;;;;4.17;70.91;101763.97;5067337;28;20789;-82
2022/01/07 05:37:00;;;;;;;10.40;9.40;;;;;;;4.20;70.78;101765.59;5066751;28;20387;-81
2022/01/07 05:39:26;;;;;;;9.77;8.87;;;;;;;4.35;70.79;101779.88;5067155;28;20135;-81
2022/01/07 05:41:57;;;;;;;12.97;11.13;;;;;;;4.28;70.42;101771.41;5066911;28;20335;-82
2022/01/07 05:44:24;;;;;;;10.83;9.80;;;;;;;4.26;70.56;101770.59;5066482;28;20139;-81
2022/01/07 05:46:51;;;;;;;10.67;9.67;;;;;;;4.21;70.14;101764.69;5066862;28;20159;-81
2022/01/07 05:49:18;;;;;;;10.30;9.37;;;;;;;4.28;70.17;101774.03;5067199;28;20296;-82
2022/01/07 05:51:46;;;;;;;10.07;9.17;;;;;;;4.32;70.53;101782.63;5067024;28;20048;-83
2022/01/07 05:54:13;;;;;;;9.97;8.83;;;;;;;4.07;70.56;101752.16;5068260;28;20075;-80
2022/01/07 05:56:42;;;;;;;10.27;9.17;;;;;;;3.93;70.42;101717.72;5068050;28;20395;-83
2022/01/07 05:59:09;;;;;;;10.03;9.03;;;;;;;4.36;70.22;101782.41;5067729;28;20055;-80
2022/01/07 06:01:35;;;;;;;10.23;9.20;;;;;;;4.47;69.77;101798.59;5066217;28;20059;-82
2022/01/07 06:04:02;;;;;;;11.47;9.33;;;;;;;4.33;70.11;101790.44;5066679;28;20113;-81
2022/01/07 06:06:31;;;;;;;9.73;8.73;;;;;;;4.30;70.00;101785.34;5066742;28;20091;-81
2022/01/07 06:08:58;;;;;;;10.03;9.03;;;;;;;4.14;69.80;101758.84;5064814;28;20044;-80
2022/01/07 06:11:27;;;;;;;10.57;9.57;;;;;;;4.14;70.21;101763.25;5066864;28;20451;-79
2022/01/07 06:13:54;;;;;;;8.97;8.07;;;;;;;4.23;70.26;101794.41;5066249;28;20048;-80
2022/01/07 06:16:20;;;;;;;9.20;8.07;;;;;;;4.09;69.99;101773.13;5066055;28;20625;-82
2022/01/07 06:18:59;;;;;;;9.80;8.80;;;;;;;4.19;70.35;101803.34;5057615;28;20478;-81
2022/01/07 06:21:26;;;;;;;10.67;8.67;;;;;;;3.80;70.51;101754.19;5046660;28;20411;-80
2022/01/07 06:23:56;;;;;;;9.47;8.47;;;;;;;3.95;70.66;101764.03;5053973;28;20510;-81
2022/01/07 06:26:22;;;;;;;10.27;8.90;;;;;;;4.16;70.28;101798.22;5066019;28;20072;-82
2022/01/07 06:28:49;;;;;;;9.97;8.80;;;;;;;4.01;70.62;101789.22;5065942;28;20147;-81
2022/01/07 06:31:15;;;;;;;9.67;8.67;;;;;;;3.95;70.94;101784.22;5066024;28;20463;-82
2022/01/07 06:33:42;;;;;;;12.43;9.80;;;;;;;4.09;71.22;101804.66;5065508;28;20058;-81
2022/01/07 06:36:09;;;;;;;10.17;9.17;;;;;;;3.96;71.08;101791.19;5082456;28;20111;-81
2022/01/07 06:38:35;;;;;;;9.77;8.77;;;;;;;3.90;71.48;101781.78;5067040;28;20143;-81
2022/01/07 06:41:02;;;;;;;10.00;8.53;;;;;;;3.99;70.70;101798.94;5065806;28;20052;-81
2022/01/07 06:43:29;;;;;;;12.17;9.43;;;;;;;4.06;71.05;101819.63;5066098;28;20062;-79
2022/01/07 06:45:55;;;;;;;9.60;8.17;;;;;;;4.10;70.68;101824.75;5081935;28;20045;-83
2022/01/07 06:48:22;;;;;;;10.40;9.13;;;;;;;4.05;70.78;101820.56;5066028;28;20056;-81
2022/01/07 06:50:51;;;;;;;11.33;9.47;;;;;;;4.01;70.91;101811.09;5066264;28;20279;-80
2022/01/07 06:53:21;;;;;;;10.37;9.27;;;;;;;3.33;71.28;101705.38;5066303;28;20360;-81
2022/01/07 06:55:59;;;;;;;9.87;8.97;;;;;;;3.44;71.61;101733.78;5066590;28;20057;-80
2022/01/07 06:58:26;;;;;;;8.77;7.83;;;;;;;3.99;71.23;101823.44;5066529;28;20044;-82
2022/01/07 07:00:53;;;;;;;10.97;9.00;;;;;;;3.85;71.33;101804.75;5067963;28;20048;-81
2022/01/07 07:03:20;;;;;;;9.63;8.73;;;;;;;3.74;70.82;101781.56;5065276;28;20056;-81
2022/01/07 07:05:47;;;;;;;11.17;8.40;;;;;;;3.95;71.50;101816.59;5065219;28;20052;-80
2022/01/07 07:08:14;;;;;;;9.33;8.33;;;;;;;3.97;71.11;101825.25;5067080;28;20080;-80
2022/01/07 07:10:40;;;;;;;14.27;9.50;;;;;;;3.45;70.97;101753.88;5066217;28;20044;-79
2022/01/07 07:13:07;;;;;;;9.63;8.63;;;;;;;3.97;71.15;101835.78;5066391;28;20143;-81
2022/01/07 07:15:34;;;;;;;9.57;8.40;;;;;;;3.86;71.66;101822.25;5066268;28;20140;-83
2022/01/07 07:18:00;;;;;;;9.67;8.67;;;;;;;3.64;70.97;101791.59;5065952;28;20051;-82
2022/01/07 07:20:29;;;;;;;11.67;8.63;;;;;;;4.02;71.34;101838.22;5065785;28;20495;-81
2022/01/07 07:22:56;;;;;;;12.47;9.23;;;;;;;3.97;71.07;101835.78;5065253;28;20047;-83
2022/01/07 07:25:23;;;;;;;10.23;9.00;;;;;;;3.94;71.67;101835.91;5065444;28;20196;-82
2022/01/07 07:27:51;;;;;;;10.17;9.00;;;;;;;3.81;71.23;101825.06;5064623;28;20136;-82
2022/01/07 07:30:17;;;;;;;8.80;7.90;;;;;;;3.78;71.03;101821.69;5063687;28;20044;-82
2022/01/07 07:32:44;;;;;;;8.87;8.07;;;;;;;3.78;70.94;101821.69;5064578;28;20411;-82
2022/01/07 07:37:47;;;;;;;8.90;8.00;;;;;;;3.84;71.25;101835.44;5065683;28;20511;-82
2022/01/07 07:40:14;;;;;;;9.37;8.43;;;;;;;3.82;71.49;101841.66;5067097;28;20062;-82
2022/01/07 07:42:43;;;;;;;9.50;8.50;;;;;;;3.80;71.58;101846.13;5065915;28;20450;-83
2022/01/07 07:45:13;;;;;;;9.73;8.73;;;;;;;2.57;71.35;101648.91;5067162;28;20048;-83
2022/01/07 07:47:40;;;;;;;9.60;8.67;;;;;;;2.91;71.60;101721.03;5065668;28;20226;-82
2022/01/07 07:50:13;;;;;;;10.17;8.27;;;;;;;3.20;72.09;101760.13;5065728;28;20503;-83
2022/01/07 07:52:39;;;;;;;9.57;8.67;;;;;;;3.62;71.89;101819.69;5065004;28;20052;-81
2022/01/07 07:55:07;;;;;;;9.90;8.73;;;;;;;3.63;71.86;101829.28;5065464;28;20060;-81
2022/01/07 07:57:33;;;;;;;10.50;8.40;;;;;;;3.15;71.05;101721.84;5065982;28;20052;-81
2022/01/07 08:00:00;;;;;;;10.33;8.20;;;;;;;3.79;71.37;101826.03;5064043;28;20052;-81
2022/01/07 08:02:30;;;;;;;9.73;8.27;;;;;;;3.76;71.32;101818.25;5065367;28;20044;-80
2022/01/07 08:04:57;;;;;;;10.87;8.87;;;;;;;3.35;71.58;101752.53;5064211;28;20052;-83
2022/01/07 08:07:24;;;;;;;9.47;8.47;;;;;;;3.78;72.09;101819.91;5064230;28;20114;-82
2022/01/07 08:09:52;;;;;;;10.20;9.20;;;;;;;3.84;71.37;101814.41;5065282;28;20052;-80
2022/01/07 08:12:49;;;;;;;11.77;10.57;;;;;;;3.82;71.34;101802.28;5064911;28;20044;-81
2022/01/07 08:17:58;;;;;;;11.90;10.07;;;;;;;4.09;70.48;101841.44;5066999;28;20087;-81
2022/01/07 08:20:24;;;;;;;11.30;9.40;;;;;;;3.63;70.19;101750.50;5067872;28;20045;-80
2022/01/07 08:22:53;;;;;;;11.80;9.47;;;;;;;4.14;69.91;101831.59;5071656;28;20041;-80
2022/01/07 08:25:26;;;;;;;11.87;9.60;;;;;;;4.19;70.46;101834.88;5067723;28;20076;-81
2022/01/07 08:28:00;;;;;;;10.80;9.73;;;;;;;4.16;70.40;101830.59;5064707;28;20076;-81
2022/01/07 08:30:35;;;;;;;10.70;9.60;;;;;;;4.30;69.93;101843.16;5065778;28;20143;-83
2022/01/07 08:35:55;;;;;;;10.60;8.83;;;;;;;4.36;70.05;101832.38;5064375;28;20114;-81
2022/01/07 08:38:22;;;;;;;10.13;9.20;;;;;;;4.44;69.37;101832.91;5065228;28;20076;-79
2022/01/07 08:40:49;;;;;;;11.77;9.07;;;;;;;3.60;69.04;101692.00;5064552;28;20349;-82
2022/01/07 08:43:15;;;;;;;10.53;9.53;;;;;;;4.28;69.21;101797.69;5066664;28;20147;-80
2022/01/07 08:45:43;;;;;;;10.80;9.80;;;;;;;4.09;69.64;101773.97;5064856;28;20340;-81
2022/01/07 08:48:10;;;;;;;11.07;9.90;;;;;;;4.38;68.67;101806.88;5065253;28;20041;-81
2022/01/07 08:50:36;;;;;;;9.73;8.80;;;;;;;4.42;67.95;101797.09;5065283;28;20123;-84
2022/01/07 08:53:03;;;;;;;10.90;9.80;;;;;;;4.40;68.12;101805.03;5064841;28;20113;-81
2022/01/07 08:55:33;;;;;;;9.57;8.67;;;;;;;4.61;67.82;101840.06;5066243;28;20040;-81
2022/01/07 08:57:59;;;;;;;10.57;9.20;;;;;;;4.41;68.03;101814.63;5065339;28;20052;-80
2022/01/07 09:00:26;;;;;;;9.77;8.87;;;;;;;4.48;67.47;101837.09;5065186;28;20044;-80
2022/01/07 09:02:53;;;;;;;10.30;9.30;;;;;;;4.41;67.31;101830.41;5064782;28;20495;-81
2022/01/07 09:05:20;;;;;;;10.57;9.53;;;;;;;4.52;67.99;101837.00;5064974;28;20045;-82
2022/01/07 09:07:47;;;;;;;11.03;8.90;;;;;;;3.88;68.03;101743.34;5064639;28;20068;-80
2022/01/07 09:10:14;;;;;;;10.10;9.10;;;;;;;4.27;69.12;101809.09;5064898;28;20515;-82
2022/01/07 09:12:40;;;;;;;10.97;9.97;;;;;;;4.28;69.30;101803.78;5064929;28;20539;-80
2022/01/07 09:15:07;;;;;;;11.13;10.07;;;;;;;4.25;69.59;101797.81;5064946;28;20048;-81
2022/01/07 09:17:35;;;;;;;10.47;9.47;;;;;;;4.40;69.24;101812.94;5066180;28;20055;-81
2022/01/07 09:20:05;;;;;;;10.27;9.30;;;;;;;4.55;69.21;101829.81;5064646;28;20354;-82
2022/01/07 09:22:33;;;;;;;10.40;9.50;;;;;;;4.37;68.59;101771.00;5065029;28;20075;-82
2022/01/07 09:25:00;;;;;;;10.90;9.80;;;;;;;4.32;68.00;101746.69;5064911;28;20055;-81
2022/01/07 09:27:26;;;;;;;12.23;10.47;;;;;;;4.91;67.36;101823.81;5065239;28;20080;-80
2022/01/07 09:29:53;;;;;;;11.33;10.23;;;;;;;4.98;67.01;101840.19;5064569;28;20511;-82
2022/01/07 09:32:19;;;;;;;10.53;9.33;;;;;;;4.85;66.18;101819.66;5064624;28;20137;-82
2022/01/07 09:34:46;;;;;;;9.80;8.80;;;;;;;5.01;66.65;101843.53;5064570;28;20049;-83
2022/01/07 09:37:15;;;;;;;12.13;10.93;;;;;;;4.59;66.76;101770.03;5064637;28;20059;-82
2022/01/07 09:39:41;;;;;;;13.20;9.70;;;;;;;4.99;66.89;101837.47;5064441;28;20079;-82
2022/01/07 09:42:09;;;;;;;14.73;9.83;;;;;;;5.07;66.73;101831.84;5064516;28;20052;-82
2022/01/07 09:44:43;;;;;;;11.87;9.73;;;;;;;5.12;67.48;101833.38;5068049;28;20056;-83
2022/01/07 09:47:12;;;;;;;12.23;9.83;;;;;;;5.07;67.06;101803.78;5068652;28;20055;-82
2022/01/07 09:49:39;;;;;;;10.77;9.75;;;;;;;5.20;66.24;101819.84;5068362;28;20090;-81
2022/01/07 09:52:08;;;;;;;10.60;9.43;;;;;;;5.08;65.77;101778.31;5068219;28;20167;-81
2022/01/07 09:54:37;;;;;;;16.10;10.37;;;;;;;5.37;65.75;101813.78;5069306;28;20123;-82
2022/01/07 09:57:07;;;;;;;12.60;9.70;;;;;;;5.16;65.23;101768.25;5067949;28;20348;-82
2022/01/07 09:59:35;;;;;;;9.82;8.95;;;;;;;4.53;64.67;101633.56;5067736;28;20045;-80
2022/01/07 10:02:07;;;;;;;10.27;9.23;;;;;;;5.15;63.70;101737.59;5068800;28;20475;-82
2022/01/07 10:04:36;;;;;;;9.88;8.93;;;;;;;5.56;63.51;101782.13;5067672;28;20048;-83
2022/01/07 10:07:22;;;;;;;11.77;9.45;;;;;;;5.60;63.54;101788.94;5069555;28;20087;-81
2022/01/07 10:10:17;;;;;;;12.98;10.05;;;;;;;5.58;63.39;101798.69;5066405;28;20056;-82
2022/01/07 10:13:00;;;;;;;10.40;9.30;;;;;;;5.66;63.51;101795.72;5065682;28;20040;-80
2022/01/07 10:15:37;;;;;;;13.13;8.82;;;;;;;5.61;63.37;101788.03;5066236;28;20091;-81
2022/01/07 10:18:07;;;;;;;11.77;9.30;;;;;;;5.57;62.77;101781.19;5067948;28;20552;-80
2022/01/07 10:20:43;;;;;;;15.60;9.63;;;;;;;5.65;63.33;101772.91;5068596;28;20140;-82
2022/01/07 10:23:15;;;;;;;13.50;9.10;;;;;;;5.67;61.62;101764.00;5067521;28;20048;-80
2022/01/07 10:25:45;;;;;;;9.50;8.60;;;;;;;5.32;62.60;101713.94;5066197;28;20135;-83
2022/01/07 10:28:18;;;;;;;8.90;8.10;;;;;;;5.67;62.82;101758.72;5066215;28;20383;-80
2022/01/07 10:30:48;;;;;;;9.85;8.88;;;;;;;5.58;62.55;101740.75;5066878;28;20052;-82
2022/01/07 10:33:29;;;;;;;11.70;9.32;;;;;;;5.66;61.81;101745.66;5065214;28;20538;-84
2022/01/07 10:36:16;;;;;;;9.05;8.15;;;;;;;4.99;62.93;101626.94;5066230;28;20055;-82
2022/01/07 10:38:53;;;;;;;10.10;8.80;;;;;;;5.66;62.31;101727.22;5064870;28;20049;-82
2022/01/07 10:41:22;;;;;;;9.35;8.55;;;;;;;5.16;63.26;101618.19;5065770;28;20270;-83
2022/01/07 10:43:52;;;;;;;9.95;9.00;;;;;;;4.29;62.03;101482.16;5065604;28;20133;-81
2022/01/07 10:46:25;;;;;;;9.25;8.45;;;;;;;5.84;61.46;101714.88;5066792;28;20495;-82
2022/01/07 10:48:55;;;;;;;9.98;7.53;;;;;;;5.91;61.45;101719.75;5067146;28;20095;-83
2022/01/07 10:51:36;;;;;;;12.77;9.63;;;;;;;5.98;61.43;101722.97;5063564;28;20136;-81
2022/01/07 10:54:10;;;;;;;10.27;8.20;;;;;;;5.96;61.76;101714.28;5044255;28;20464;-81
2022/01/07 10:56:47;;;;;;;11.48;9.27;;;;;;;5.90;61.57;101706.66;5043880;28;20561;-81
2022/01/07 10:59:18;;;;;;;10.77;9.40;;;;;;;6.03;61.45;101714.81;5045411;28;20045;-81
2022/01/07 11:01:55;;;;;;;9.85;8.95;;;;;;;6.00;61.77;101686.84;5044684;28;20144;-82
2022/01/07 11:04:29;;;;;;;12.38;9.05;;;;;;;6.12;60.83;101691.47;5042056;28;20411;-81
2022/01/07 11:07:02;;;;;;;9.15;8.25;;;;;;;6.29;61.31;101711.66;5045599;28;20144;-83
2022/01/07 11:09:28;;;;;;;10.00;9.05;;;;;;;6.53;60.58;101701.56;5053842;28;20044;-82
2022/01/07 11:12:00;;;;;;;8.98;8.13;;;;;;;6.74;60.19;101696.03;5066519;28;20151;-81
2022/01/07 11:14:28;;;;;;;9.07;7.60;;;;;;;6.92;59.38;101689.75;5065220;28;20499;-82
2022/01/07 11:16:58;;;;;;;9.68;8.25;;;;;;;6.69;58.13;101608.38;5067769;28;20357;-80
2022/01/07 11:19:32;;;;;;;9.50;8.02;;;;;;;7.04;57.62;101675.84;5067178;28;20118;-82
2022/01/07 11:22:00;;;;;;;8.02;7.28;;;;;;;7.11;58.18;101689.53;5064981;28;20053;-81
2022/01/07 11:24:44;;;;;;;8.65;7.85;;;;;;;6.90;57.19;101654.66;5066691;28;20070;-82
2022/01/07 11:27:17;;;;;;;9.52;7.57;;;;;;;6.93;57.33;101675.59;5066515;28;20144;-82
2022/01/07 11:29:52;;;;;;;11.07;7.75;;;;;;;6.86;57.90;101679.53;5067710;28;20563;-80
2022/01/07 11:32:44;;;;;;;7.90;7.10;;;;;;;6.75;57.96;101660.81;5067643;28;20167;-83
2022/01/07 11:35:16;;;;;;;9.40;7.70;;;;;;;6.88;57.92;101668.88;5068737;28;20087;-81
2022/01/07 11:37:46;;;;;;;8.30;7.53;;;;;;;6.87;57.71;101653.97;5069344;28;20094;-82
2022/01/07 11:40:33;;;;;;;13.63;8.20;;;;;;;6.67;57.95;101644.53;5056760;28;20351;-82
2022/01/07 11:43:04;;;;;;;8.18;7.40;;;;;;;6.31;59.22;101596.38;5044255;28;20049;-83
2022/01/07 11:45:33;;;;;;;9.98;7.28;;;;;;;6.67;58.66;101655.09;5045956;28;20505;-82